createdAt,value
2022-10-31T00:00:58.504Z,2.85
2022-10-31T00:03:27.374Z,2.85
2022-10-31T00:05:54.863Z,2.30
2022-10-31T00:08:22.246Z,2.95
2022-10-31T00:10:49.641Z,2.67
2022-10-31T00:13:17.219Z,2.97
2022-10-31T00:15:44.689Z,3.00
2022-10-31T00:18:12.111Z,2.42
2022-10-31T00:20:39.962Z,2.47
2022-10-31T00:23:08.166Z,2.50
2022-10-31T00:25:38.632Z,2.35
2022-10-31T00:28:08.639Z,2.70
2022-10-31T00:30:36.068Z,2.47
2022-10-31T00:33:05.574Z,2.55
2022-10-31T00:35:33.473Z,2.38
2022-10-31T00:38:02.163Z,2.70
2022-10-31T00:40:29.560Z,2.60
2022-10-31T00:42:57.541Z,2.40
2022-10-31T00:45:25.283Z,2.28
2022-10-31T00:47:52.641Z,2.05
2022-10-31T00:50:20.028Z,2.45
2022-10-31T00:52:47.520Z,2.30
2022-10-31T00:55:15.103Z,2.13
2022-10-31T00:57:42.730Z,2.40
2022-10-31T01:00:11.736Z,1.98
2022-10-31T01:02:39.279Z,2.10
2022-10-31T01:05:07.664Z,2.30
2022-10-31T01:07:39.127Z,2.38
2022-10-31T01:10:11.144Z,2.33
2022-10-31T01:12:44.526Z,2.33
2022-10-31T01:15:14.045Z,2.08
2022-10-31T01:17:42.351Z,2.63
2022-10-31T01:20:14.833Z,2.17
2022-10-31T01:22:42.284Z,2.57
2022-10-31T01:25:13.235Z,1.90
2022-10-31T01:27:40.710Z,2.33
2022-10-31T01:30:08.876Z,2.38
2022-10-31T01:32:36.304Z,2.30
2022-10-31T01:35:04.228Z,2.40
2022-10-31T01:37:32.500Z,2.40
2022-10-31T01:39:59.945Z,2.28
2022-10-31T01:42:27.328Z,2.28
2022-10-31T01:44:56.370Z,1.90
2022-10-31T01:47:33.937Z,2.10
2022-10-31T01:50:05.673Z,2.10
2022-10-31T01:52:39.588Z,2.20
2022-10-31T01:55:18.082Z,2.10
2022-10-31T01:57:49.242Z,2.20
2022-10-31T02:00:20.177Z,1.90
2022-10-31T02:02:49.356Z,2.30
2022-10-31T02:05:21.056Z,2.28
2022-10-31T02:08:05.689Z,2.40
2022-10-31T02:10:34.969Z,2.00
2022-10-31T02:13:05.923Z,2.00
2022-10-31T02:15:38.653Z,2.03
2022-10-31T02:18:07.573Z,2.50
2022-10-31T02:20:51.804Z,2.00
2022-10-31T02:23:34.830Z,2.20
2022-10-31T02:26:44.616Z,1.90
2022-10-31T02:29:49.174Z,1.90
2022-10-31T02:32:43.503Z,2.00
2022-10-31T02:35:18.522Z,2.20
2022-10-31T02:38:04.826Z,2.10
2022-10-31T02:41:02.776Z,1.85
2022-10-31T02:44:09.473Z,2.00
2022-10-31T02:47:13.847Z,1.70
2022-10-31T02:50:19.297Z,1.92
2022-10-31T02:52:52.846Z,1.92
2022-10-31T02:55:26.341Z,1.90
2022-10-31T02:58:11.832Z,1.58
2022-10-31T03:01:32.139Z,1.75
2022-10-31T03:04:18.220Z,1.95
2022-10-31T03:06:58.415Z,1.67
2022-10-31T03:09:34.254Z,1.95
2022-10-31T03:12:04.496Z,1.83
2022-10-31T03:14:50.052Z,1.77
2022-10-31T03:17:27.235Z,1.80
2022-10-31T03:19:59.369Z,1.80
2022-10-31T03:22:31.102Z,1.67
2022-10-31T03:25:03.886Z,1.75
2022-10-31T03:27:34.930Z,1.80
2022-10-31T03:30:06.504Z,1.92
2022-10-31T03:33:02.551Z,1.77
2022-10-31T03:35:33.996Z,1.95
2022-10-31T03:38:07.626Z,1.70
2022-10-31T03:40:38.931Z,2.13
2022-10-31T03:45:43.409Z,1.73
2022-10-31T03:48:11.174Z,2.00
2022-10-31T03:50:45.973Z,1.73
2022-10-31T03:53:27.129Z,1.73
2022-10-31T03:58:30.973Z,1.70
2022-10-31T04:01:01.221Z,1.65
2022-10-31T04:03:32.158Z,1.90
2022-10-31T04:06:07.179Z,1.90
2022-10-31T04:08:42.494Z,1.90
2022-10-31T04:11:17.600Z,1.92
2022-10-31T04:13:56.078Z,1.80
2022-10-31T04:16:25.229Z,1.60
2022-10-31T04:18:53.174Z,1.80
2022-10-31T04:21:20.657Z,1.80
2022-10-31T04:23:49.300Z,1.75
2022-10-31T04:26:25.763Z,1.73
2022-10-31T04:28:53.228Z,1.75
2022-10-31T04:31:20.823Z,1.80
2022-10-31T04:33:50.279Z,1.50
2022-10-31T04:36:18.829Z,1.77
2022-10-31T04:38:46.365Z,1.77
2022-10-31T04:41:26.989Z,1.67
2022-10-31T04:43:59.654Z,1.77
2022-10-31T04:46:28.357Z,1.83
2022-10-31T04:48:57.772Z,1.80
2022-10-31T04:51:25.421Z,1.70
2022-10-31T04:53:53.264Z,1.60
2022-10-31T04:56:39.211Z,1.63
2022-10-31T04:59:12.828Z,1.80
2022-10-31T05:01:53.131Z,1.98
2022-10-31T05:04:43.713Z,1.90
2022-10-31T05:07:11.225Z,1.77
2022-10-31T05:09:38.733Z,1.70
2022-10-31T05:12:06.208Z,2.10
2022-10-31T05:14:52.352Z,1.58
2022-10-31T05:17:38.189Z,2.00
2022-10-31T05:20:28.084Z,2.03
2022-10-31T05:23:18.706Z,1.60
2022-10-31T05:25:46.236Z,1.70
2022-10-31T05:28:13.718Z,1.77
2022-10-31T05:30:41.134Z,1.90
2022-10-31T05:33:12.973Z,1.90
2022-10-31T05:35:59.180Z,1.77
2022-10-31T05:38:45.053Z,1.70
2022-10-31T05:41:21.007Z,1.77
2022-10-31T05:43:48.837Z,1.60
2022-10-31T05:46:19.592Z,1.55
2022-10-31T05:49:05.606Z,1.50
2022-10-31T05:51:51.536Z,1.80
2022-10-31T05:54:21.660Z,1.52
2022-10-31T05:56:49.509Z,1.92
2022-10-31T05:59:16.950Z,1.40
2022-10-31T06:01:45.576Z,1.60
2022-10-31T06:04:37.490Z,1.50
2022-10-31T06:07:04.954Z,1.50
2022-10-31T06:09:33.404Z,1.70
2022-10-31T06:12:00.784Z,1.80
2022-10-31T06:14:47.055Z,1.55
2022-10-31T06:17:14.738Z,1.60
2022-10-31T06:19:45.176Z,1.50
2022-10-31T06:22:16.667Z,1.77
2022-10-31T06:24:44.835Z,1.58
2022-10-31T06:27:38.493Z,1.52
2022-10-31T06:30:12.356Z,2.05
2022-10-31T06:32:39.806Z,1.52
2022-10-31T06:35:07.873Z,1.60
2022-10-31T06:37:36.449Z,1.40
2022-10-31T06:40:15.994Z,1.70
2022-10-31T06:43:03.590Z,1.48
2022-10-31T06:45:32.528Z,1.75
2022-10-31T06:48:20.445Z,1.70
2022-10-31T06:51:26.630Z,1.58
2022-10-31T06:53:54.675Z,1.83
2022-10-31T06:56:26.757Z,1.50
2022-10-31T06:58:56.851Z,1.67
2022-10-31T07:01:47.643Z,1.50
2022-10-31T07:04:15.198Z,1.75
2022-10-31T07:06:46.995Z,1.67
2022-10-31T07:09:18.173Z,1.38
2022-10-31T07:11:45.580Z,1.50
2022-10-31T07:14:13.669Z,1.40
2022-10-31T07:16:41.106Z,1.42
2022-10-31T07:19:08.775Z,1.27
2022-10-31T07:21:36.142Z,1.70
2022-10-31T07:24:03.736Z,1.50
2022-10-31T07:26:50.681Z,1.45
2022-10-31T07:29:18.100Z,1.58
2022-10-31T07:31:47.893Z,1.67
2022-10-31T07:34:21.940Z,1.75
2022-10-31T07:37:07.985Z,1.30
2022-10-31T07:39:36.374Z,1.50
2022-10-31T07:42:03.859Z,1.25
2022-10-31T07:44:32.354Z,1.60
2022-10-31T07:47:18.461Z,1.38
2022-10-31T07:50:04.474Z,1.38
2022-10-31T07:53:08.506Z,1.30
2022-10-31T07:55:50.744Z,1.40
2022-10-31T07:58:20.018Z,1.50
2022-10-31T08:00:48.934Z,1.40
2022-10-31T08:03:24.519Z,1.35
2022-10-31T08:06:10.776Z,1.20
2022-10-31T08:08:44.258Z,1.30
2022-10-31T08:11:11.630Z,1.30
2022-10-31T08:13:39.801Z,1.30
2022-10-31T08:16:08.597Z,1.40
2022-10-31T08:18:41.876Z,1.27
2022-10-31T08:21:12.114Z,1.13
2022-10-31T08:23:39.585Z,1.40
2022-10-31T08:26:08.601Z,1.08
2022-10-31T08:28:36.058Z,1.27
2022-10-31T08:31:04.203Z,1.10
2022-10-31T08:33:40.757Z,1.40
2022-10-31T08:36:21.576Z,1.40
2022-10-31T08:38:49.568Z,1.30
2022-10-31T08:41:18.074Z,1.30
2022-10-31T08:43:45.555Z,1.58
2022-10-31T08:46:13.908Z,1.40
2022-10-31T08:48:43.143Z,1.20
2022-10-31T08:51:11.702Z,1.33
2022-10-31T08:53:39.055Z,1.98
2022-10-31T08:56:41.947Z,2.25
2022-10-31T08:59:24.025Z,2.33
2022-10-31T09:02:14.829Z,2.28
2022-10-31T09:04:42.553Z,2.22
2022-10-31T09:07:25.313Z,2.33
2022-10-31T09:09:54.284Z,2.47
2022-10-31T09:12:21.806Z,2.55
2022-10-31T09:15:03.043Z,2.00
2022-10-31T09:17:39.269Z,2.20
2022-10-31T09:20:19.600Z,2.10
2022-10-31T09:22:47.369Z,2.70
2022-10-31T09:25:15.140Z,2.20
2022-10-31T09:27:46.581Z,2.10
2022-10-31T09:30:14.240Z,1.95
2022-10-31T09:32:44.425Z,1.92
2022-10-31T09:37:44.674Z,2.00
2022-10-31T09:40:12.870Z,1.80
2022-10-31T09:43:14.872Z,1.80
2022-10-31T09:45:42.313Z,2.30
2022-10-31T09:48:30.690Z,1.90
2022-10-31T09:51:26.717Z,1.80
2022-10-31T09:54:22.719Z,1.95
2022-10-31T09:56:51.638Z,1.70
2022-10-31T09:59:32.571Z,1.92
2022-10-31T10:02:49.187Z,1.60
2022-10-31T10:05:22.742Z,1.90
2022-10-31T10:07:54.201Z,1.75
2022-10-31T10:11:01.042Z,1.83
2022-10-31T10:14:08.123Z,1.50
2022-10-31T10:16:59.782Z,1.80
2022-10-31T10:19:51.335Z,1.73
2022-10-31T10:22:32.737Z,1.50
2022-10-31T10:25:11.961Z,1.52
2022-10-31T10:28:02.844Z,1.80
2022-10-31T10:33:29.497Z,1.70
2022-10-31T10:36:10.826Z,1.70
2022-10-31T10:38:51.302Z,1.98
2022-10-31T10:41:21.440Z,1.77
2022-10-31T10:43:51.632Z,1.77
2022-10-31T10:46:37.690Z,1.83
2022-10-31T10:49:15.949Z,1.90
2022-10-31T10:52:19.258Z,1.95
2022-10-31T10:55:04.269Z,1.67
2022-10-31T10:57:42.798Z,1.80
2022-10-31T11:00:31.357Z,1.70
2022-10-31T11:03:00.181Z,1.60
2022-10-31T11:06:04.524Z,1.60
2022-10-31T11:08:37.167Z,1.80
2022-10-31T11:11:32.098Z,1.63
2022-10-31T11:14:06.521Z,1.55
2022-10-31T11:16:41.275Z,1.52
2022-10-31T11:19:19.138Z,1.50
2022-10-31T11:21:53.662Z,1.65
2022-10-31T11:24:23.337Z,1.80
2022-10-31T11:26:52.599Z,1.65
2022-10-31T11:29:26.265Z,1.50
2022-10-31T11:31:56.991Z,1.60
2022-10-31T11:34:46.971Z,1.60
2022-10-31T11:37:29.530Z,1.67
2022-10-31T11:40:00.156Z,1.60
2022-10-31T11:42:31.459Z,1.67
2022-10-31T11:45:08.878Z,1.60
2022-10-31T11:47:37.942Z,1.55
2022-10-31T11:50:13.095Z,1.80
2022-10-31T11:52:42.007Z,1.30
2022-10-31T11:55:30.252Z,1.58
2022-10-31T11:57:57.955Z,1.48
2022-10-31T12:03:39.071Z,1.48
2022-10-31T12:06:12.370Z,1.70
2022-10-31T12:08:42.493Z,1.52
2022-10-31T12:11:35.444Z,1.60
2022-10-31T12:14:30.663Z,1.55
2022-10-31T12:17:15.021Z,1.65
2022-10-31T12:20:04.248Z,1.58
2022-10-31T12:23:03.122Z,1.38
2022-10-31T12:25:47.021Z,1.50
2022-10-31T12:28:26.277Z,1.30
2022-10-31T12:31:08.677Z,1.30
2022-10-31T12:34:26.816Z,1.50
2022-10-31T12:37:14.453Z,1.40
2022-10-31T12:40:07.804Z,1.35
2022-10-31T12:42:56.765Z,1.45
2022-10-31T12:45:41.927Z,1.63
2022-10-31T12:48:27.945Z,1.52
2022-10-31T12:51:10.533Z,1.50
2022-10-31T12:54:08.272Z,1.20
2022-10-31T12:56:54.139Z,1.70
2022-10-31T12:59:36.954Z,1.30
2022-10-31T13:02:22.214Z,1.33
2022-10-31T13:04:52.468Z,1.50
2022-10-31T13:07:45.365Z,1.23
2022-10-31T13:10:33.260Z,1.10
2022-10-31T13:13:08.006Z,1.35
2022-10-31T13:15:50.555Z,1.40
2022-10-31T13:18:34.556Z,1.30
2022-10-31T13:21:09.442Z,1.45
2022-10-31T13:23:50.973Z,1.70
2022-10-31T13:26:34.334Z,1.38
2022-10-31T13:29:31.756Z,1.35
2022-10-31T13:32:05.284Z,1.20
2022-10-31T13:34:42.965Z,1.17
2022-10-31T13:37:41.410Z,1.40
2022-10-31T13:40:18.867Z,1.40
2022-10-31T13:43:12.830Z,1.58
2022-10-31T13:45:51.035Z,1.65
2022-10-31T13:48:20.159Z,1.35
2022-10-31T13:51:03.236Z,1.40
2022-10-31T13:53:40.017Z,1.60
2022-10-31T13:56:10.339Z,1.65
2022-10-31T13:58:37.954Z,1.52
2022-10-31T14:01:24.124Z,1.52
2022-10-31T14:04:11.053Z,1.42
2022-10-31T14:06:55.210Z,1.40
2022-10-31T14:09:42.921Z,1.27
2022-10-31T14:12:32.950Z,1.40
2022-10-31T14:15:06.909Z,1.67
2022-10-31T14:18:01.878Z,1.50
2022-10-31T14:20:38.644Z,1.40
2022-10-31T14:23:36.632Z,1.48
2022-10-31T14:26:22.056Z,1.50
2022-10-31T14:28:51.466Z,1.70
2022-10-31T14:31:42.416Z,1.30
2022-10-31T14:34:29.767Z,1.70
2022-10-31T14:37:13.877Z,1.67
2022-10-31T14:39:59.889Z,1.88
2022-10-31T14:42:56.390Z,1.45
2022-10-31T14:45:28.667Z,1.60
2022-10-31T14:48:11.502Z,1.50
2022-10-31T14:50:41.775Z,1.40
2022-10-31T14:53:16.675Z,1.40
2022-10-31T14:55:49.257Z,1.20
2022-10-31T14:58:39.557Z,1.20
2022-10-31T15:01:07.870Z,1.60
2022-10-31T15:03:44.500Z,1.40
2022-10-31T15:06:24.001Z,1.35
2022-10-31T15:08:53.858Z,1.45
2022-10-31T15:11:25.712Z,1.50
2022-10-31T15:14:00.534Z,1.58
2022-10-31T15:16:41.500Z,1.10
2022-10-31T15:19:13.722Z,1.35
2022-10-31T15:21:49.020Z,1.25
2022-10-31T15:24:19.507Z,1.30
2022-10-31T15:26:55.323Z,1.40
2022-10-31T15:29:25.031Z,1.15
2022-10-31T15:31:57.856Z,1.00
2022-10-31T15:34:38.060Z,1.20
2022-10-31T15:37:06.186Z,1.37
2022-10-31T15:39:34.591Z,1.20
2022-10-31T15:42:02.311Z,1.30
2022-10-31T15:44:38.457Z,1.50
2022-10-31T15:47:11.905Z,1.10
2022-10-31T15:50:01.641Z,1.20
2022-10-31T15:52:47.092Z,1.40
2022-10-31T15:55:17.108Z,1.40
2022-10-31T15:57:47.349Z,1.30
2022-10-31T16:00:30.073Z,1.67
2022-10-31T16:03:07.397Z,1.40
2022-10-31T16:05:40.811Z,1.30
2022-10-31T16:08:30.068Z,1.20
2022-10-31T16:11:01.869Z,1.20
2022-10-31T16:13:32.393Z,1.60
2022-10-31T16:16:35.257Z,1.52
2022-10-31T16:18:54.231Z,1.48
2022-10-31T16:21:29.698Z,1.48
2022-10-31T16:24:05.715Z,1.35
2022-10-31T16:26:34.761Z,1.73
2022-10-31T16:29:05.394Z,1.67
2022-10-31T16:31:41.081Z,1.90
2022-10-31T16:34:26.914Z,1.70
2022-10-31T16:36:54.797Z,1.63
2022-10-31T16:39:22.281Z,1.67
2022-10-31T16:41:56.323Z,1.70
2022-10-31T16:44:27.964Z,1.40
2022-10-31T16:47:15.697Z,1.80
2022-10-31T16:49:44.541Z,1.75
2022-10-31T16:52:12.068Z,2.03
2022-10-31T16:54:40.215Z,1.65
2022-10-31T16:57:12.016Z,2.00
2022-10-31T16:59:39.428Z,1.58
2022-10-31T17:02:16.557Z,2.28
2022-10-31T17:04:45.035Z,1.77
2022-10-31T17:07:12.390Z,1.80
2022-10-31T17:09:39.752Z,1.42
2022-10-31T17:12:14.891Z,1.63
2022-10-31T17:14:42.670Z,1.50
2022-10-31T17:17:10.141Z,1.40
2022-10-31T17:19:37.645Z,1.90
2022-10-31T17:22:05.009Z,1.50
2022-10-31T17:24:32.398Z,1.63
2022-10-31T17:26:59.759Z,1.63
2022-10-31T17:29:27.125Z,1.95
2022-10-31T17:31:54.889Z,1.92
2022-10-31T17:34:22.280Z,2.13
2022-10-31T17:36:53.665Z,1.92
2022-10-31T17:39:21.161Z,1.60
2022-10-31T17:41:52.509Z,1.90
2022-10-31T17:44:20.269Z,2.35
2022-10-31T17:46:47.786Z,2.10
2022-10-31T17:49:15.372Z,1.73
2022-10-31T17:51:42.749Z,2.20
2022-10-31T17:54:10.989Z,1.70
2022-10-31T17:56:38.505Z,2.15
2022-10-31T18:01:39.087Z,1.80
2022-10-31T18:04:06.598Z,1.83
2022-10-31T18:06:34.069Z,1.98
2022-10-31T18:09:07.065Z,1.77
2022-10-31T18:11:34.476Z,1.90
2022-10-31T18:14:02.013Z,1.80
2022-10-31T18:16:29.549Z,1.90
2022-10-31T18:19:05.662Z,2.40
2022-10-31T18:21:33.316Z,2.28
2022-10-31T18:24:02.265Z,2.45
2022-10-31T18:26:30.110Z,2.10
2022-10-31T18:28:57.547Z,2.20
2022-10-31T18:31:25.381Z,2.63
2022-10-31T18:33:54.723Z,2.45
2022-10-31T18:36:23.079Z,2.30
2022-10-31T18:38:50.511Z,2.35
2022-10-31T18:41:17.874Z,2.30
2022-10-31T18:43:45.411Z,2.50
2022-10-31T18:46:16.317Z,2.78
2022-10-31T18:48:44.895Z,2.70
2022-10-31T18:51:14.711Z,2.65
2022-10-31T18:53:42.138Z,2.42
2022-10-31T18:56:11.503Z,2.30
2022-10-31T18:58:38.863Z,2.30
2022-10-31T19:01:11.237Z,2.58
2022-10-31T19:03:39.507Z,2.58
2022-10-31T19:06:07.722Z,2.30
2022-10-31T19:08:35.932Z,2.65
2022-10-31T19:11:11.991Z,3.05
2022-10-31T19:13:40.860Z,3.30
2022-10-31T19:16:14.231Z,3.05
2022-10-31T19:18:42.878Z,3.22
2022-10-31T19:21:13.488Z,3.28
2022-10-31T19:23:41.283Z,3.15
2022-10-31T19:26:09.290Z,3.20
2022-10-31T19:28:39.118Z,3.10
2022-10-31T19:31:07.787Z,3.22
2022-10-31T19:33:36.295Z,3.13
2022-10-31T19:36:11.663Z,3.22
2022-10-31T19:38:42.277Z,3.83
2022-10-31T19:41:16.605Z,3.42
2022-10-31T19:43:44.606Z,3.30
2022-10-31T19:46:22.404Z,3.53
2022-10-31T19:49:02.860Z,3.22
2022-10-31T19:51:31.771Z,3.25
2022-10-31T19:53:59.160Z,3.72
2022-10-31T19:56:26.688Z,3.92
2022-10-31T19:58:54.285Z,3.30
2022-10-31T20:01:24.003Z,3.42
2022-10-31T20:03:51.936Z,3.53
2022-10-31T20:06:25.435Z,3.78
2022-10-31T20:08:53.549Z,4.72
2022-10-31T20:11:20.941Z,4.70
2022-10-31T20:13:48.484Z,4.50
2022-10-31T20:16:16.968Z,4.93
2022-10-31T20:18:45.150Z,4.93
2022-10-31T20:21:15.393Z,4.60
2022-10-31T20:23:45.442Z,5.45
2022-10-31T20:26:15.874Z,5.05
2022-10-31T20:28:43.820Z,5.50
2022-10-31T20:31:16.142Z,5.25
2022-10-31T20:33:43.628Z,5.47
2022-10-31T20:36:11.665Z,5.57
2022-10-31T20:38:40.064Z,5.15
2022-10-31T20:41:10.118Z,4.68
2022-10-31T20:43:38.509Z,5.38
2022-10-31T20:46:10.095Z,5.15
2022-10-31T20:48:38.059Z,5.30
2022-10-31T20:51:18.632Z,5.60
2022-10-31T20:53:47.366Z,5.43
2022-10-31T20:56:16.959Z,6.55
2022-10-31T20:58:45.880Z,6.03
2022-10-31T21:01:14.716Z,5.57
2022-10-31T21:03:43.067Z,6.05
2022-10-31T21:06:11.500Z,5.60
2022-10-31T21:08:40.102Z,5.60
2022-10-31T21:11:16.477Z,5.35
2022-10-31T21:13:45.324Z,5.43
2022-10-31T21:16:26.978Z,5.93
2022-10-31T21:18:55.087Z,5.97
2022-10-31T21:21:32.171Z,5.60
2022-10-31T21:24:02.910Z,5.57
2022-10-31T21:26:35.899Z,5.50
2022-10-31T21:29:04.812Z,6.15
2022-10-31T21:31:32.770Z,6.20
2022-10-31T21:34:00.177Z,5.93
2022-10-31T21:36:27.619Z,5.30
2022-10-31T21:38:56.039Z,5.53
2022-10-31T21:41:25.080Z,6.00
2022-10-31T21:43:56.137Z,5.75
2022-10-31T21:48:52.733Z,5.95
2022-10-31T21:51:23.446Z,5.38
2022-10-31T21:54:09.377Z,5.82
2022-10-31T21:56:37.182Z,6.30
2022-10-31T21:59:05.285Z,6.20
2022-10-31T22:01:33.900Z,5.93
2022-10-31T22:04:01.637Z,5.80
2022-10-31T22:06:32.157Z,5.70
2022-10-31T22:09:01.286Z,6.00
2022-10-31T22:11:29.376Z,6.30
2022-10-31T22:13:59.024Z,6.10
2022-10-31T22:16:28.093Z,5.43
2022-10-31T22:18:57.399Z,5.95
2022-10-31T22:21:26.714Z,5.40
2022-10-31T22:24:01.911Z,5.65
2022-10-31T22:26:33.246Z,5.72
2022-10-31T22:29:04.259Z,5.70
2022-10-31T22:31:32.586Z,6.00
2022-10-31T22:34:00.605Z,5.07
2022-10-31T22:36:30.569Z,5.45
2022-10-31T22:38:58.904Z,5.63
2022-10-31T22:41:31.504Z,5.40
2022-10-31T22:43:59.533Z,5.78
2022-10-31T22:46:32.432Z,5.30
2022-10-31T22:49:02.292Z,5.40
2022-10-31T22:51:32.691Z,5.28
2022-10-31T22:54:00.941Z,5.50
2022-10-31T22:56:30.744Z,5.13
2022-10-31T22:58:59.024Z,4.90
2022-10-31T23:01:29.432Z,5.57
2022-10-31T23:03:57.018Z,4.88
2022-10-31T23:06:26.889Z,4.75
2022-10-31T23:08:54.743Z,5.38
2022-10-31T23:11:25.237Z,4.93
2022-10-31T23:14:16.404Z,5.07
2022-10-31T23:19:14.493Z,5.10
2022-10-31T23:22:02.386Z,4.45
2022-10-31T23:24:43.381Z,4.82
2022-10-31T23:27:16.802Z,4.72
2022-10-31T23:29:50.954Z,4.90
2022-10-31T23:32:25.262Z,4.80
2022-10-31T23:35:11.283Z,4.55
2022-10-31T23:37:39.326Z,4.85
2022-10-31T23:40:08.903Z,4.70
2022-10-31T23:42:36.293Z,4.35
2022-10-31T23:45:03.912Z,4.78
2022-10-31T23:47:31.284Z,4.60
2022-10-31T23:49:58.697Z,4.57
2022-10-31T23:52:26.076Z,4.30
2022-10-31T23:54:53.414Z,4.50
2022-10-31T23:57:20.812Z,4.25
2022-10-31T23:59:48.155Z,4.40
